Time;durP1;ratioP1;P1;durP2;ratioP2;P2;SDS_P1;SDS_P2;PMS_P1;PMS_P2;Temp;Humidity;BMP_temperature;BMP_pressure;BME280_temperature;BME280_humidity;BME280_pressure;Samples;Min_cycle;Max_cycle;Signal;HPM_P1;HPM_P2
2022/01/26 00:00:07;;;;;;;299.63;61.85;;;;;;;-3.36;50.12;100580.19;339660;29;1467;-68
2022/01/26 00:00:30;;;;;;;297.90;60.28;;;;;;;-3.39;50.28;100578.41;339633;29;894;-68
2022/01/26 00:05:49;;;;;;;297.48;59.85;;;;;;;-3.38;49.90;100574.16;342146;28;1296;-68
2022/01/26 00:06:07;;;;;;;298.20;60.60;;;;;;;-3.37;49.21;100575.91;340707;28;1463;-68
2022/01/26 00:06:22;;;;;;;299.95;61.17;;;;;;;-3.36;49.38;100580.19;339459;29;823;-68
2022/01/26 00:06:33;;;;;;;300.10;60.47;;;;;;;-3.35;49.56;100579.38;339780;29;838;-68
2022/01/26 00:06:44;;;;;;;299.75;60.22;;;;;;;-3.34;49.45;100578.53;340704;28;1478;-68
2022/01/26 00:06:55;;;;;;;299.30;60.25;;;;;;;-3.36;49.15;100575.06;339531;28;1108;-68
2022/01/26 00:07:06;;;;;;;299.40;60.70;;;;;;;-3.37;49.76;100571.66;341158;28;1113;-68
2022/01/26 00:07:16;;;;;;;299.43;61.37;;;;;;;-3.35;49.89;100580.25;340754;28;1377;-68
2022/01/26 00:07:27;;;;;;;300.77;61.33;;;;;;;-3.39;49.50;100580.09;339394;29;1523;-68
2022/01/26 00:07:37;;;;;;;298.90;60.93;;;;;;;-3.38;50.11;100580.16;341088;28;897;-68
2022/01/26 00:07:47;;;;;;;298.25;60.40;;;;;;;-3.38;49.39;100574.16;337135;29;799;-68
2022/01/26 00:07:58;;;;;;;297.07;60.43;;;;;;;-3.35;49.62;100579.38;338372;29;1458;-68
2022/01/26 00:08:09;;;;;;;296.73;60.92;;;;;;;-3.34;49.33;100573.44;339463;29;1242;-68
2022/01/26 00:08:24;;;;;;;296.33;60.92;;;;;;;-3.32;49.77;100573.47;339811;29;766;-68
2022/01/26 00:08:36;;;;;;;297.48;60.97;;;;;;;-3.32;49.89;100574.34;340452;28;999;-68
2022/01/26 00:08:48;;;;;;;298.33;60.42;;;;;;;-3.31;49.36;100576.09;340680;28;1440;-68
2022/01/26 00:08:58;;;;;;;300.15;60.33;;;;;;;-3.30;49.92;100575.25;340919;28;1337;-67
2022/01/26 00:09:09;;;;;;;299.10;60.13;;;;;;;-3.28;49.66;100576.19;340738;28;1286;-67
2022/01/26 00:09:20;;;;;;;298.77;60.30;;;;;;;-3.31;48.80;100570.97;341163;28;1116;-67
2022/01/26 00:09:30;;;;;;;298.63;60.53;;;;;;;-3.28;48.98;100578.72;340867;28;1396;-68
2022/01/26 00:09:41;;;;;;;299.53;60.73;;;;;;;-3.28;48.83;100577.88;339637;28;1436;-68
2022/01/26 00:09:51;;;;;;;299.92;61.05;;;;;;;-3.29;49.53;100571.88;339824;29;885;-68
2022/01/26 00:10:02;;;;;;;298.70;60.87;;;;;;;-3.30;49.23;100572.69;342917;28;1407;-68
2022/01/26 00:10:13;;;;;;;297.70;60.67;;;;;;;-3.27;49.54;100577.03;340972;28;3040;-68
2022/01/26 00:10:23;;;;;;;297.00;60.53;;;;;;;-3.30;49.80;100569.28;339418;28;1436;-68
2022/01/26 00:10:34;;;;;;;295.45;59.97;;;;;;;-3.29;49.57;100576.13;339457;29;833;-68
2022/01/26 00:10:44;;;;;;;295.17;60.40;;;;;;;-3.31;49.09;100576.09;340470;28;1266;-68
2022/01/26 00:10:55;;;;;;;294.53;60.20;;;;;;;-3.31;49.04;100575.22;339638;28;1468;-68
2022/01/26 00:11:05;;;;;;;294.53;60.13;;;;;;;-3.31;49.82;100578.66;339667;28;1431;-68
2022/01/26 00:11:16;;;;;;;295.30;60.05;;;;;;;-3.30;49.51;100567.59;339067;28;1353;-70
2022/01/26 00:11:27;;;;;;;296.97;59.57;;;;;;;-3.33;49.24;100572.59;336983;29;1445;-68
2022/01/26 00:11:38;;;;;;;299.30;59.95;;;;;;;-3.33;48.89;100572.59;339622;28;1293;-67
2022/01/26 00:11:48;;;;;;;299.57;60.10;;;;;;;-3.34;48.90;100578.53;340170;28;1369;-67
2022/01/26 00:11:58;;;;;;;298.30;60.63;;;;;;;-3.34;48.96;100578.53;339536;28;1511;-68
2022/01/26 00:12:10;;;;;;;298.37;60.67;;;;;;;-3.33;49.28;100576.84;338256;29;1341;-68
2022/01/26 00:12:20;;;;;;;299.67;60.65;;;;;;;-3.32;49.61;100574.34;339675;28;1457;-68
2022/01/26 00:12:30;;;;;;;300.33;60.67;;;;;;;-3.30;49.36;100577.81;339403;28;1409;-68
2022/01/26 00:12:41;;;;;;;298.70;60.30;;;;;;;-3.29;49.20;100584.69;340985;28;1293;-68
2022/01/26 00:12:51;;;;;;;295.70;60.20;;;;;;;-3.28;49.29;100575.31;340378;28;1190;-68
2022/01/26 00:13:01;;;;;;;297.40;60.07;;;;;;;-3.28;49.23;100576.19;336825;29;1421;-68
2022/01/26 00:13:12;;;;;;;299.23;60.70;;;;;;;-3.27;49.22;100577.91;339346;29;1271;-67
2022/01/26 00:13:22;;;;;;;299.17;60.67;;;;;;;-3.27;49.09;100577.03;339686;29;1022;-67
2022/01/26 00:13:33;;;;;;;298.30;61.10;;;;;;;-3.28;49.16;100570.19;339620;29;1153;-67
2022/01/26 00:13:43;;;;;;;298.07;60.77;;;;;;;-3.29;49.20;100577.00;339424;28;1287;-67
2022/01/26 00:13:54;;;;;;;297.08;59.95;;;;;;;-3.29;48.86;100569.31;339322;28;1487;-67
2022/01/26 00:14:10;;;;;;;295.38;59.28;;;;;;;-3.29;49.43;100568.44;340898;28;1603;-67
2022/01/26 00:14:20;;;;;;;296.00;59.53;;;;;;;-3.29;49.25;100569.31;339404;29;918;-67
2022/01/26 00:14:30;;;;;;;295.77;59.80;;;;;;;-3.29;48.92;100574.44;339252;28;1447;-67
2022/01/26 00:14:43;;;;;;;296.33;59.80;;;;;;;-3.29;48.95;100576.13;339594;28;1412;-67
2022/01/26 00:14:53;;;;;;;299.60;59.85;;;;;;;-3.31;49.52;100568.41;336976;29;1484;-67
2022/01/26 00:15:04;;;;;;;301.85;60.20;;;;;;;-3.30;48.54;100575.25;338173;28;1410;-67
2022/01/26 00:15:14;;;;;;;297.23;60.28;;;;;;;-3.28;48.81;100576.19;340897;28;1456;-67
2022/01/26 00:15:27;;;;;;;298.40;60.97;;;;;;;-3.27;49.33;100575.34;340800;28;1464;-67
2022/01/26 00:15:37;;;;;;;297.10;60.55;;;;;;;-3.27;48.74;100570.25;340956;28;913;-67
2022/01/26 00:15:48;;;;;;;299.37;60.93;;;;;;;-3.26;49.27;100574.53;340760;28;1494;-67
2022/01/26 00:16:01;;;;;;;299.92;61.33;;;;;;;-3.26;48.95;100571.97;341497;28;1479;-67
2022/01/26 00:16:36;;;;;;;302.06;61.84;;;;;;;-3.24;48.73;100577.13;338912;28;1440;-67
2022/01/26 00:16:46;;;;;;;299.30;61.35;;;;;;;-3.28;48.91;100573.63;339534;28;1449;-67
2022/01/26 00:16:59;;;;;;;299.52;61.42;;;;;;;-3.28;48.97;100576.19;340362;28;1380;-67
2022/01/26 00:17:11;;;;;;;301.60;61.65;;;;;;;-3.26;49.12;100579.66;341268;28;1487;-67
2022/01/26 00:17:22;;;;;;;302.13;61.80;;;;;;;-3.26;48.81;100579.66;342289;28;844;-67
2022/01/26 00:17:32;;;;;;;300.07;62.13;;;;;;;-3.28;49.21;100571.06;342116;28;1498;-67
2022/01/26 00:17:43;;;;;;;298.00;61.35;;;;;;;-3.29;48.88;100579.56;341146;28;1487;-68
2022/01/26 00:17:55;;;;;;;296.33;61.00;;;;;;;-3.28;49.22;100572.75;339613;29;873;-68
2022/01/26 00:18:06;;;;;;;297.25;60.63;;;;;;;-3.28;49.22;100571.06;338504;28;1312;-68
2022/01/26 00:18:19;;;;;;;298.25;61.00;;;;;;;-3.28;49.27;100575.31;339505;29;1353;-68
2022/01/26 00:18:33;;;;;;;299.05;61.08;;;;;;;-3.29;48.86;100577.00;340593;28;1187;-68
2022/01/26 00:18:43;;;;;;;298.20;60.42;;;;;;;-3.27;49.38;100570.25;340888;28;1298;-68
2022/01/26 00:19:00;;;;;;;297.88;60.42;;;;;;;-3.28;48.83;100571.06;340907;28;1254;-68
2022/01/26 00:19:19;;;;;;;297.27;60.22;;;;;;;-3.26;48.70;100573.66;338566;28;1567;-68
2022/01/26 00:19:44;;;;;;;298.75;60.35;;;;;;;-3.27;48.81;100575.34;338624;29;1433;-68
2022/01/26 00:20:38;;;;;;;301.23;60.95;;;;;;;-3.26;49.04;100569.41;338092;29;1358;-68
2022/01/26 00:20:44;;;;;;;298.13;60.45;;;;;;;-3.26;48.73;100573.66;339255;29;1317;-68
2022/01/26 00:20:59;;;;;;;299.74;60.22;;;;;;;-3.25;48.75;100571.16;338053;28;1353;-68
2022/01/26 00:21:16;;;;;;;297.63;60.20;;;;;;;-3.25;49.06;100571.16;338008;28;1295;-68
2022/01/26 00:21:37;;;;;;;298.35;60.47;;;;;;;-3.29;48.52;100574.44;339314;28;1270;-68
2022/01/26 00:21:51;;;;;;;299.15;61.22;;;;;;;-3.30;48.69;100572.69;340731;28;1337;-68
2022/01/26 00:22:01;;;;;;;299.42;61.13;;;;;;;-3.29;48.83;100566.75;340783;28;1462;-68
2022/01/26 00:22:23;;;;;;;300.98;62.45;;;;;;;-3.30;49.43;100564.16;338359;28;1467;-67
2022/01/26 00:23:10;;;;;;;298.30;60.75;;;;;;;-3.28;49.20;100568.50;340842;28;1225;-67
2022/01/26 00:24:08;;;;;;;297.17;60.70;;;;;;;-3.26;48.74;100569.41;339643;29;819;-67
2022/01/26 00:25:23;;;;;;;296.15;59.58;;;;;;;-3.29;49.06;100574.44;339412;28;1404;-67
2022/01/26 00:25:46;;;;;;;298.13;60.53;;;;;;;-3.26;49.04;100579.66;339418;29;1361;-68
2022/01/26 00:26:22;;;;;;;300.17;61.43;;;;;;;-3.27;48.83;100570.25;338344;29;1073;-67
2022/01/26 00:27:20;;;;;;;297.27;59.70;;;;;;;-3.27;48.80;100572.78;338105;29;1414;-67
2022/01/26 00:27:44;;;;;;;301.42;62.70;;;;;;;-3.26;48.33;100566.84;336089;29;1279;-67
2022/01/26 00:28:30;;;;;;;297.07;60.03;;;;;;;-3.25;48.29;100566.03;336545;29;1317;-67
2022/01/26 00:29:15;;;;;;;298.27;60.65;;;;;;;-3.26;48.41;100573.66;336962;29;892;-67
2022/01/26 00:29:30;;;;;;;296.80;59.78;;;;;;;-3.23;48.60;100569.50;337946;29;1142;-67
2022/01/26 00:29:47;;;;;;;297.08;60.13;;;;;;;-3.24;48.21;100567.78;339528;28;1453;-68
2022/01/26 00:30:14;;;;;;;296.17;60.88;;;;;;;-3.23;48.51;100572.06;337003;29;1397;-68
2022/01/26 00:32:00;;;;;;;298.33;60.38;;;;;;;-3.21;48.50;100567.88;339262;28;1432;-68
2022/01/26 00:38:34;;;;;;;298.08;60.65;;;;;;;-3.14;48.09;100562.09;339394;29;1333;-67
2022/01/26 00:38:48;;;;;;;299.10;60.60;;;;;;;-3.13;47.47;100565.53;338061;29;1504;-68
2022/01/26 00:38:59;;;;;;;299.33;60.65;;;;;;;-3.15;47.84;100568.03;338169;29;1309;-68
2022/01/26 00:39:09;;;;;;;299.23;60.92;;;;;;;-3.14;47.54;100564.66;336862;29;882;-68
2022/01/26 00:39:20;;;;;;;296.97;60.57;;;;;;;-3.12;47.51;100568.13;338012;29;1508;-68
2022/01/26 00:39:30;;;;;;;297.50;60.85;;;;;;;-3.12;48.12;100564.72;340711;28;1490;-68
2022/01/26 00:39:41;;;;;;;298.93;60.47;;;;;;;-3.13;48.18;100560.41;338152;29;787;-68
2022/01/26 00:39:52;;;;;;;298.17;60.17;;;;;;;-3.17;47.54;100564.56;339459;28;1535;-67
2022/01/26 00:40:09;;;;;;;296.33;59.67;;;;;;;-3.16;48.12;100568.00;340115;28;1479;-67
2022/01/26 00:40:42;;;;;;;295.83;59.63;;;;;;;-3.17;48.38;100567.13;340884;28;1079;-67
2022/01/26 00:40:53;;;;;;;295.73;59.40;;;;;;;-3.14;47.60;100561.25;338133;29;1579;-67
2022/01/26 00:41:08;;;;;;;296.95;59.65;;;;;;;-3.15;47.69;100562.06;339441;28;1432;-67
2022/01/26 00:41:31;;;;;;;296.83;59.70;;;;;;;-3.20;48.42;100554.25;339124;29;1330;-67
2022/01/26 00:41:41;;;;;;;298.66;60.48;;;;;;;-3.21;48.19;100561.88;339536;29;1267;-68
2022/01/26 00:41:56;;;;;;;300.67;61.27;;;;;;;-3.20;48.41;100558.50;338071;29;1444;-68
2022/01/26 00:42:06;;;;;;;298.48;60.78;;;;;;;-3.22;48.39;100561.00;338047;29;1755;-68
2022/01/26 00:42:16;;;;;;;296.70;60.80;;;;;;;-3.18;47.83;100557.72;339202;28;1488;-68
2022/01/26 00:42:33;;;;;;;296.30;60.38;;;;;;;-3.18;48.33;100562.84;339453;29;924;-68
2022/01/26 00:42:45;;;;;;;296.42;59.97;;;;;;;-3.18;48.11;100559.41;339445;28;1352;-69
2022/01/26 00:43:01;;;;;;;295.15;59.90;;;;;;;-3.21;48.29;100557.63;340756;28;1474;-68
2022/01/26 00:43:20;;;;;;;296.73;60.58;;;;;;;-3.21;48.51;100560.19;337873;29;1098;-68
2022/01/26 00:43:31;;;;;;;298.55;60.30;;;;;;;-3.25;48.34;100560.03;338017;29;1126;-68
2022/01/26 00:43:49;;;;;;;297.63;60.05;;;;;;;-3.28;48.39;100555.69;340939;28;1366;-68
2022/01/26 00:44:01;;;;;;;295.27;59.50;;;;;;;-3.28;48.83;100558.25;342019;28;1423;-68
2022/01/26 00:44:11;;;;;;;294.67;59.28;;;;;;;-3.28;48.70;100565.94;338174;29;1315;-68
2022/01/26 00:44:22;;;;;;;296.43;59.67;;;;;;;-3.28;48.77;100553.16;336400;29;1416;-68
2022/01/26 00:44:40;;;;;;;299.45;60.15;;;;;;;-3.27;48.10;100557.44;338560;29;1330;-69
2022/01/26 00:44:50;;;;;;;299.48;60.30;;;;;;;-3.26;48.62;100555.75;338905;29;1367;-68
2022/01/26 00:45:01;;;;;;;298.02;60.08;;;;;;;-3.27;48.12;100557.44;337923;29;1460;-68
2022/01/26 00:45:11;;;;;;;298.42;60.25;;;;;;;-3.28;48.25;100553.16;339478;29;779;-68
2022/01/26 00:45:25;;;;;;;297.40;60.50;;;;;;;-3.29;48.79;100556.53;336435;28;2008;-68
2022/01/26 00:45:37;;;;;;;296.08;59.97;;;;;;;-3.30;48.41;100556.47;339035;29;1590;-68
2022/01/26 00:45:54;;;;;;;295.20;59.58;;;;;;;-3.31;48.26;100550.50;338915;29;1416;-67
2022/01/26 00:46:07;;;;;;;293.33;59.40;;;;;;;-3.32;48.99;100553.00;340341;28;1273;-67
2022/01/26 00:46:18;;;;;;;293.35;59.22;;;;;;;-3.38;48.67;100549.44;339207;28;1439;-67
2022/01/26 00:46:28;;;;;;;294.23;59.25;;;;;;;-3.43;49.02;100556.09;339574;29;826;-67
2022/01/26 00:46:42;;;;;;;295.70;59.43;;;;;;;-3.44;48.62;100561.19;339504;28;3257;-67
2022/01/26 00:46:52;;;;;;;295.83;59.80;;;;;;;-3.47;48.64;100554.31;340617;28;1476;-68
2022/01/26 00:47:03;;;;;;;296.58;59.85;;;;;;;-3.45;49.22;100559.44;340776;28;1467;-68
2022/01/26 00:47:14;;;;;;;296.90;59.78;;;;;;;-3.45;48.74;100556.88;339395;29;795;-67
2022/01/26 00:47:25;;;;;;;297.38;60.25;;;;;;;-3.44;48.83;100558.63;336889;29;902;-67
2022/01/26 00:47:36;;;;;;;299.35;60.50;;;;;;;-3.42;49.29;100556.97;337594;29;1428;-67
2022/01/26 00:47:46;;;;;;;298.73;60.33;;;;;;;-3.41;49.09;100548.47;340859;28;1474;-67
2022/01/26 00:47:57;;;;;;;298.87;60.67;;;;;;;-3.41;49.55;100559.56;340737;28;1192;-67
2022/01/26 00:48:09;;;;;;;296.75;60.72;;;;;;;-3.40;49.60;100556.19;340678;28;1455;-68
2022/01/26 00:48:20;;;;;;;297.20;60.60;;;;;;;-3.37;49.16;100560.53;340570;28;1447;-68
2022/01/26 00:48:32;;;;;;;294.83;59.90;;;;;;;-3.36;48.96;100549.50;341720;28;1530;-68
2022/01/26 00:48:43;;;;;;;293.50;59.58;;;;;;;-3.36;48.84;100549.50;340917;28;865;-68
2022/01/26 00:48:53;;;;;;;293.77;59.50;;;;;;;-3.35;48.88;100554.66;342003;28;1477;-68
2022/01/26 00:49:04;;;;;;;298.30;60.03;;;;;;;-3.34;49.46;100550.41;339281;29;1500;-67
2022/01/26 00:49:17;;;;;;;300.10;60.53;;;;;;;-3.32;49.14;100550.44;339686;29;830;-67
2022/01/26 00:49:27;;;;;;;300.30;61.12;;;;;;;-3.30;49.53;100552.22;338193;29;897;-67
2022/01/26 00:49:38;;;;;;;298.17;60.43;;;;;;;-3.30;48.77;100544.56;337945;29;1448;-67
2022/01/26 00:49:50;;;;;;;296.88;60.10;;;;;;;-3.31;49.37;100549.63;340629;28;1361;-67
2022/01/26 00:50:06;;;;;;;297.17;60.20;;;;;;;-3.31;49.28;100553.06;341944;28;1299;-67
2022/01/26 00:50:17;;;;;;;300.25;61.22;;;;;;;-3.33;49.33;100552.13;340985;28;1396;-67
2022/01/26 00:50:28;;;;;;;300.88;61.10;;;;;;;-3.33;48.97;100557.25;340697;28;786;-67
2022/01/26 00:50:38;;;;;;;300.37;60.57;;;;;;;-3.34;49.06;100552.97;337884;29;1360;-67
2022/01/26 00:50:51;;;;;;;297.23;60.10;;;;;;;-3.33;49.15;100551.28;339408;29;1463;-67
2022/01/26 00:51:04;;;;;;;296.25;60.30;;;;;;;-3.36;49.53;100557.16;339555;28;1574;-67
2022/01/26 00:51:16;;;;;;;296.50;60.42;;;;;;;-3.35;49.19;100551.22;337941;28;956;-67
2022/01/26 00:51:27;;;;;;;299.20;59.92;;;;;;;-3.33;49.57;100551.28;336781;29;921;-67
2022/01/26 00:51:37;;;;;;;300.17;60.15;;;;;;;-3.33;49.54;100551.28;337523;29;1531;-67
2022/01/26 00:51:48;;;;;;;302.73;60.47;;;;;;;-3.34;48.91;100550.41;338055;29;1420;-67
2022/01/26 00:51:58;;;;;;;300.65;60.13;;;;;;;-3.37;49.69;100546.06;340603;28;1192;-67
2022/01/26 00:52:14;;;;;;;297.58;59.28;;;;;;;-3.38;49.02;100548.56;340633;28;1497;-67
2022/01/26 00:52:38;;;;;;;295.23;59.50;;;;;;;-3.38;49.59;100553.69;340475;28;1308;-67
2022/01/26 00:52:53;;;;;;;298.27;61.22;;;;;;;-3.41;49.00;100548.47;340568;28;1337;-67
2022/01/26 00:53:04;;;;;;;300.23;61.92;;;;;;;-3.45;49.39;100547.50;341870;28;1443;-67
2022/01/26 00:53:14;;;;;;;299.50;61.38;;;;;;;-3.47;48.94;100546.63;336802;29;1340;-67
2022/01/26 00:53:31;;;;;;;299.73;61.63;;;;;;;-3.47;48.99;100553.44;339389;28;1262;-67
2022/01/26 00:53:46;;;;;;;299.35;60.90;;;;;;;-3.47;49.08;100548.31;337859;29;1425;-68
2022/01/26 00:54:05;;;;;;;298.40;60.45;;;;;;;-3.49;48.74;100545.72;339578;29;893;-68
2022/01/26 00:54:16;;;;;;;297.85;60.55;;;;;;;-3.47;49.06;100548.31;340798;28;1420;-68
2022/01/26 00:54:27;;;;;;;299.43;60.97;;;;;;;-3.47;49.21;100549.19;340820;28;1347;-68
2022/01/26 00:54:37;;;;;;;299.15;61.00;;;;;;;-3.45;49.19;100554.31;337505;29;1425;-68
2022/01/26 00:54:48;;;;;;;296.50;60.42;;;;;;;-3.45;49.65;100550.06;336734;29;1495;-68
2022/01/26 00:54:58;;;;;;;296.67;60.30;;;;;;;-3.45;49.63;100546.66;336876;29;1270;-68
2022/01/26 00:55:13;;;;;;;296.35;60.08;;;;;;;-3.44;49.15;100554.38;339271;29;1440;-68
2022/01/26 00:55:23;;;;;;;297.55;59.97;;;;;;;-3.46;49.26;100547.47;337847;29;1267;-68
2022/01/26 00:55:34;;;;;;;297.10;60.00;;;;;;;-3.45;49.30;100546.66;339835;28;1384;-68
2022/01/26 00:55:44;;;;;;;296.88;60.17;;;;;;;-3.45;49.64;100549.19;338345;28;1224;-68
2022/01/26 00:55:55;;;;;;;296.83;60.53;;;;;;;-3.46;49.25;100550.03;338358;29;973;-69
2022/01/26 00:56:05;;;;;;;297.70;60.72;;;;;;;-3.46;49.70;100542.34;339724;28;1502;-68
2022/01/26 00:56:16;;;;;;;299.23;61.17;;;;;;;-3.49;49.13;100537.19;337937;28;1487;-68
2022/01/26 00:56:26;;;;;;;299.13;60.78;;;;;;;-3.48;48.87;100536.34;343630;28;1215;-68
2022/01/26 00:56:37;;;;;;;297.77;60.58;;;;;;;-3.47;49.53;100543.22;342348;28;1422;-68
2022/01/26 00:56:48;;;;;;;298.30;60.43;;;;;;;-3.46;48.80;100537.22;339606;29;1479;-68
2022/01/26 00:56:58;;;;;;;298.23;60.97;;;;;;;-3.45;49.66;100549.19;337133;29;1057;-67
2022/01/26 00:57:08;;;;;;;299.13;60.95;;;;;;;-3.44;48.95;100544.13;339322;29;1516;-67
2022/01/26 00:57:19;;;;;;;298.10;61.13;;;;;;;-3.43;49.80;100542.44;341089;28;1443;-67
2022/01/26 00:57:29;;;;;;;297.25;60.17;;;;;;;-3.45;49.20;100536.41;339518;29;810;-67
2022/01/26 00:57:40;;;;;;;296.07;60.03;;;;;;;-3.44;49.63;100539.00;339343;28;1432;-67
2022/01/26 00:57:50;;;;;;;296.75;60.30;;;;;;;-3.43;48.99;100534.78;339268;28;1447;-67
2022/01/26 00:58:00;;;;;;;296.53;60.27;;;;;;;-3.45;49.57;100537.28;339660;29;1471;-67
2022/01/26 00:58:11;;;;;;;297.02;60.42;;;;;;;-3.43;48.88;100539.88;339519;29;1194;-67
2022/01/26 00:58:21;;;;;;;296.80;60.43;;;;;;;-3.42;49.69;100531.38;339670;29;1123;-67
2022/01/26 00:58:32;;;;;;;298.45;60.55;;;;;;;-3.42;49.17;100536.50;336839;29;1477;-67
2022/01/26 00:58:42;;;;;;;298.97;60.20;;;;;;;-3.42;49.28;100541.63;339732;29;928;-67
2022/01/26 00:58:54;;;;;;;297.15;59.50;;;;;;;-3.43;49.15;100534.78;340884;28;1522;-67
2022/01/26 00:59:04;;;;;;;294.23;59.35;;;;;;;-3.45;48.94;100541.53;340816;28;1638;-68
2022/01/26 00:59:15;;;;;;;295.40;59.77;;;;;;;-3.45;49.59;100541.53;341074;28;1201;-67
2022/01/26 00:59:25;;;;;;;295.95;59.72;;;;;;;-3.45;49.54;100537.28;339522;29;790;-67
2022/01/26 00:59:35;;;;;;;296.30;59.80;;;;;;;-3.45;49.56;100541.53;340440;28;1416;-67
2022/01/26 00:59:46;;;;;;;295.65;59.42;;;;;;;-3.44;49.53;100544.13;339730;28;1325;-67
2022/01/26 00:59:58;;;;;;;296.30;59.40;;;;;;;-3.43;49.43;100537.31;341364;28;1269;-67
2022/01/26 01:00:11;;;;;;;298.30;59.63;;;;;;;-3.42;49.16;100542.50;340956;28;1409;-67
2022/01/26 01:00:26;;;;;;;300.25;60.30;;;;;;;-3.43;49.27;100538.19;339474;28;1448;-67
2022/01/26 01:00:36;;;;;;;298.02;60.25;;;;;;;-3.43;49.34;100540.75;336949;29;1356;-68
2022/01/26 01:00:47;;;;;;;296.10;59.97;;;;;;;-3.41;49.30;100535.69;339494;28;1448;-68
2022/01/26 01:00:59;;;;;;;296.37;60.23;;;;;;;-3.42;49.32;100536.50;341713;28;1383;-68
2022/01/26 01:01:10;;;;;;;298.63;60.22;;;;;;;-3.41;49.78;100543.34;342053;28;1388;-68
2022/01/26 01:01:20;;;;;;;298.60;59.83;;;;;;;-3.40;49.42;100539.97;339575;29;1316;-68
2022/01/26 01:01:32;;;;;;;297.00;59.63;;;;;;;-3.39;49.44;100539.16;340965;28;1242;-68
2022/01/26 01:01:44;;;;;;;295.52;59.63;;;;;;;-3.40;49.38;100534.88;335948;29;981;-68
2022/01/26 01:01:56;;;;;;;298.27;59.85;;;;;;;-3.41;49.41;100540.81;336950;29;1080;-68
2022/01/26 01:02:06;;;;;;;299.17;60.25;;;;;;;-3.40;49.93;100539.97;338326;28;1292;-68
2022/01/26 01:02:16;;;;;;;299.07;60.97;;;;;;;-3.43;49.24;100540.75;339536;29;1282;-68
2022/01/26 01:02:27;;;;;;;297.77;60.55;;;;;;;-3.43;49.75;100545.00;338347;29;829;-68
2022/01/26 01:02:37;;;;;;;299.20;61.00;;;;;;;-3.43;49.15;100543.31;338125;29;1493;-68
2022/01/26 01:02:49;;;;;;;299.27;60.38;;;;;;;-3.43;49.70;100540.75;336879;29;1441;-68
2022/01/26 01:03:01;;;;;;;299.25;61.10;;;;;;;-3.41;49.61;100545.91;341009;28;924;-68
2022/01/26 01:03:11;;;;;;;298.55;60.95;;;;;;;-3.40;49.31;100535.72;340579;28;1502;-68
2022/01/26 01:03:22;;;;;;;298.43;60.67;;;;;;;-3.38;49.45;100534.09;340279;28;1452;-67
2022/01/26 01:03:34;;;;;;;298.15;59.80;;;;;;;-3.37;49.20;100540.06;339596;28;1425;-68
2022/01/26 01:03:47;;;;;;;297.77;59.83;;;;;;;-3.36;49.21;100534.13;340824;28;1425;-68
2022/01/26 01:03:57;;;;;;;297.55;59.78;;;;;;;-3.37;49.29;100534.97;342162;28;964;-68
2022/01/26 01:04:08;;;;;;;298.55;59.47;;;;;;;-3.37;49.07;100542.63;340203;28;1471;-68
2022/01/26 01:04:18;;;;;;;297.43;59.27;;;;;;;-3.38;49.29;100535.78;339422;29;1483;-68
2022/01/26 01:04:29;;;;;;;298.90;59.50;;;;;;;-3.39;49.62;100536.59;340850;28;1051;-68
2022/01/26 01:04:40;;;;;;;296.60;59.30;;;;;;;-3.39;49.77;100542.59;336914;29;1441;-68
2022/01/26 01:04:50;;;;;;;298.38;60.20;;;;;;;-3.38;49.79;100538.34;339546;28;1546;-68
2022/01/26 01:05:06;;;;;;;296.80;60.00;;;;;;;-3.40;49.27;100535.72;339528;29;1342;-68
2022/01/26 01:05:27;;;;;;;296.10;59.70;;;;;;;-3.37;49.68;100537.50;341052;28;814;-68
2022/01/26 01:06:03;;;;;;;295.90;59.85;;;;;;;-3.37;49.47;100540.94;341619;28;1451;-68
2022/01/26 01:06:25;;;;;;;299.02;60.05;;;;;;;-3.39;49.67;100536.59;339312;28;1447;-68
2022/01/26 01:06:44;;;;;;;299.08;59.35;;;;;;;-3.38;49.68;100534.09;340069;28;1032;-68
2022/01/26 01:06:59;;;;;;;296.20;59.35;;;;;;;-3.36;49.54;100536.69;339667;29;1298;-68
2022/01/26 01:07:16;;;;;;;297.63;59.53;;;;;;;-3.36;48.79;100532.44;339422;29;1428;-68
2022/01/26 01:07:31;;;;;;;297.15;59.55;;;;;;;-3.36;49.23;100536.69;339518;29;1455;-68
2022/01/26 01:07:43;;;;;;;295.73;58.47;;;;;;;-3.36;49.58;100537.56;339695;28;1491;-68
2022/01/26 01:08:01;;;;;;;295.05;58.58;;;;;;;-3.36;49.69;100534.13;336776;29;1768;-68
2022/01/26 01:08:16;;;;;;;295.70;59.75;;;;;;;-3.34;49.20;100540.16;339025;29;1448;-68
2022/01/26 01:08:26;;;;;;;297.92;60.30;;;;;;;-3.35;49.63;100538.44;340865;28;2265;-68
2022/01/26 01:08:39;;;;;;;298.98;60.47;;;;;;;-3.36;49.75;100532.44;340686;28;1443;-66
2022/01/26 01:08:49;;;;;;;299.05;60.33;;;;;;;-3.35;49.72;100533.31;340961;28;1423;-67
2022/01/26 01:09:00;;;;;;;298.97;60.20;;;;;;;-3.35;49.37;100546.09;341139;28;842;-67
2022/01/26 01:09:11;;;;;;;297.45;59.85;;;;;;;-3.37;49.66;100532.41;339696;28;1404;-67
2022/01/26 01:09:23;;;;;;;296.92;59.88;;;;;;;-3.34;48.91;100529.94;339364;28;1444;-68
2022/01/26 01:09:34;;;;;;;295.48;59.44;;;;;;;-3.32;48.95;100535.97;340871;28;1011;-68
2022/01/26 01:09:46;;;;;;;298.23;60.22;;;;;;;-3.28;48.91;100536.94;339625;29;858;-68
2022/01/26 01:09:56;;;;;;;298.73;59.95;;;;;;;-3.35;49.06;100534.19;340353;28;1492;-66
2022/01/26 01:10:07;;;;;;;299.67;60.25;;;;;;;-3.36;49.26;100536.69;339431;28;1487;-66
2022/01/26 01:10:20;;;;;;;298.97;59.50;;;;;;;-3.38;48.99;100533.22;338368;29;790;-66
2022/01/26 01:10:31;;;;;;;297.42;59.50;;;;;;;-3.37;48.92;100540.06;342175;28;881;-67
2022/01/26 01:10:45;;;;;;;295.70;59.40;;;;;;;-3.37;49.43;100540.06;339851;28;1387;-67
2022/01/26 01:10:56;;;;;;;299.50;60.35;;;;;;;-3.37;48.99;100535.81;339324;28;1534;-68
2022/01/26 01:11:07;;;;;;;299.67;60.30;;;;;;;-3.34;48.86;100537.59;339562;28;1467;-68
2022/01/26 01:11:17;;;;;;;297.85;60.33;;;;;;;-3.35;49.59;100533.31;339229;29;1582;-68
2022/01/26 01:11:28;;;;;;;297.43;60.30;;;;;;;-3.36;49.54;100532.44;339665;29;1622;-68
2022/01/26 01:11:38;;;;;;;298.43;60.53;;;;;;;-3.38;49.63;100534.09;339312;28;1342;-68
2022/01/26 01:11:55;;;;;;;298.17;60.30;;;;;;;-3.38;49.57;100534.09;339590;29;750;-68
2022/01/26 01:12:06;;;;;;;298.33;60.13;;;;;;;-3.40;49.35;100534.88;338395;29;1402;-68
2022/01/26 01:12:16;;;;;;;299.32;60.04;;;;;;;-3.39;49.52;100531.47;338001;29;1436;-68
2022/01/26 01:12:27;;;;;;;298.07;59.80;;;;;;;-3.42;49.32;100527.13;339132;29;1448;-68
2022/01/26 01:12:42;;;;;;;298.83;60.83;;;;;;;-3.40;48.97;100535.72;339553;29;1463;-68
2022/01/26 01:12:57;;;;;;;297.83;60.50;;;;;;;-3.38;49.31;100533.22;339388;28;1192;-68
2022/01/26 01:13:14;;;;;;;300.23;59.92;;;;;;;-3.37;49.35;100529.84;342148;28;1342;-68
2022/01/26 01:13:33;;;;;;;298.38;59.38;;;;;;;-3.37;48.98;100534.97;342178;28;1377;-68
2022/01/26 01:13:45;;;;;;;297.27;59.92;;;;;;;-3.34;49.47;100535.06;340763;28;1530;-68
2022/01/26 01:13:56;;;;;;;299.15;60.50;;;;;;;-3.35;48.69;100523.94;338166;29;1472;-68
2022/01/26 01:14:06;;;;;;;299.45;60.35;;;;;;;-3.34;48.83;100529.94;338315;29;1421;-68
2022/01/26 01:14:17;;;;;;;299.85;60.10;;;;;;;-3.33;49.58;100531.66;336937;29;1355;-68
2022/01/26 01:14:27;;;;;;;299.30;60.40;;;;;;;-3.35;48.94;100528.19;340724;28;1376;-68
2022/01/26 01:14:39;;;;;;;298.33;60.75;;;;;;;-3.38;49.23;100528.97;341877;28;1447;-68
2022/01/26 01:14:50;;;;;;;297.10;60.70;;;;;;;-3.37;49.22;100528.16;342407;28;880;-68
2022/01/26 01:15:00;;;;;;;299.52;60.20;;;;;;;-3.36;48.95;100531.56;339359;28;1393;-68
2022/01/26 01:15:11;;;;;;;298.83;59.33;;;;;;;-3.38;48.74;100528.97;339538;28;1415;-68
2022/01/26 01:15:23;;;;;;;299.38;59.40;;;;;;;-3.36;48.80;100531.56;339460;29;1454;-68
2022/01/26 01:15:34;;;;;;;297.77;59.60;;;;;;;-3.34;49.13;100532.50;339404;29;998;-68
2022/01/26 01:15:45;;;;;;;297.60;60.03;;;;;;;-3.32;49.00;100532.53;340821;28;1455;-68
2022/01/26 01:15:55;;;;;;;296.75;60.08;;;;;;;-3.32;49.23;100537.66;339234;28;1555;-68
2022/01/26 01:16:07;;;;;;;298.23;60.78;;;;;;;-3.33;49.21;100531.66;340827;28;1466;-68